Estación Meteorológica Peña el Pijo (Robertgarden) [ 12/11/19 23:39:42 CET ]

Fecha Hora Presion(HPa) Temp (°C) Humedad % Rocio (°C) Viento ( m/s) Direccion Lluvia 1Hora(mm) Lluvia 24H(mm) LLuvia Total(mm)
2019-Oct-06 01:01:43 1011.500 11.0 65 4.6         490.25
2019-Oct-06 02:01:52 1011.400 10.4 67 4.5         490.25
2019-Oct-06 03:01:47 1011.400 9.9 70 4.7         490.25
2019-Oct-06 04:01:48 1011.300 10.5 72 5.7         490.25
2019-Oct-06 05:01:44 1011.200 10.8 71 5.8         490.25
2019-Oct-06 06:01:49 1011.400 10.2 72 5.4         490.25
2019-Oct-06 07:01:46 1011.100 9.8 74 5.4         490.25
2019-Oct-06 08:02:08 1012.000 8.3 78 4.7         490.25
2019-Oct-06 09:01:40 1011.800 9.1 80 5.8         490.25
2019-Oct-06 10:01:49 1012.000 15.5 74 10.9         490.25
2019-Oct-06 11:01:55 1012.400 20.1 57 11.3         490.25
2019-Oct-06 12:01:44 1012.300 25.2 42 11.4         490.25
2019-Oct-06 13:01:48 1012.300 27.3 32 9.1         490.25
2019-Oct-06 14:01:53 1012.100 28.4 31 9.6         490.25
2019-Oct-06 15:01:43 1011.300 29.9 27 8.7         490.25
2019-Oct-06 16:01:51 1011.000 29.1 28 8.6         490.25
2019-Oct-06 17:01:43 1010.900 28.1 28 7.7         490.25
2019-Oct-06 18:01:48 1010.600 28.3 28 7.9         490.25
2019-Oct-06 19:01:41 1010.900 24.2 32 6.4         490.25
2019-Oct-06 20:01:58 1011.100 18.7 47 7.1         490.25
2019-Oct-06 21:01:46 1011.600 14.9 57 6.4         490.25
2019-Oct-06 22:01:33 1012.200 13.4 63 6.5         490.25
2019-Oct-06 23:01:52 1012.800 12.6 63 5.7         490.25

Temperatura Máxima:29°    Temperatura Mínima:
Presión Máxima:1012.800 Hpa    Presión Mínima:1010.600 Hpa


Volver